createdAt,value
2016-09-04T00:00:22.742Z,-50
2016-09-04T00:01:22.735Z,-51
2016-09-04T00:02:22.785Z,-51
2016-09-04T00:03:22.754Z,-51
2016-09-04T00:04:22.807Z,-51
2016-09-04T00:05:22.767Z,-50
2016-09-04T00:06:22.795Z,-52
2016-09-04T00:07:22.747Z,-50
2016-09-04T00:08:22.766Z,-51
2016-09-04T00:09:22.813Z,-50
2016-09-04T00:10:22.790Z,-51
2016-09-04T00:11:22.797Z,-51
2016-09-04T00:12:22.785Z,-51
2016-09-04T00:13:22.790Z,-50
2016-09-04T00:14:22.792Z,-50
2016-09-04T00:15:22.777Z,-50
2016-09-04T00:16:22.825Z,-48
2016-09-04T00:17:22.715Z,-48
2016-09-04T00:18:22.719Z,-48
2016-09-04T00:19:22.741Z,-51
2016-09-04T00:20:22.792Z,-51
2016-09-04T00:21:22.762Z,-49
2016-09-04T00:22:22.754Z,-49
2016-09-04T00:23:22.739Z,-49
2016-09-04T00:24:22.763Z,-50
2016-09-04T00:25:22.782Z,-49
2016-09-04T00:26:22.818Z,-49
2016-09-04T00:27:22.795Z,-49
2016-09-04T00:28:22.757Z,-50
2016-09-04T00:29:22.793Z,-50
2016-09-04T00:30:22.742Z,-50
2016-09-04T00:31:22.793Z,-50
2016-09-04T00:32:22.742Z,-49
2016-09-04T00:33:22.820Z,-48
2016-09-04T00:34:22.769Z,-48
2016-09-04T00:35:22.745Z,-48
2016-09-04T00:36:22.779Z,-48
2016-09-04T00:37:22.767Z,-48
2016-09-04T00:38:22.766Z,-48
2016-09-04T00:39:22.757Z,-48
2016-09-04T00:40:22.766Z,-48
2016-09-04T00:41:22.732Z,-48
2016-09-04T00:42:22.801Z,-48
2016-09-04T00:43:22.793Z,-48
2016-09-04T00:44:22.813Z,-48
2016-09-04T00:45:22.817Z,-48
2016-09-04T00:46:22.792Z,-49
2016-09-04T00:47:22.795Z,-48
2016-09-04T00:48:22.871Z,-49
2016-09-04T00:49:22.836Z,-48
2016-09-04T00:50:22.837Z,-48
2016-09-04T00:51:22.858Z,-48
2016-09-04T00:52:22.869Z,-48
2016-09-04T00:53:22.770Z,-49
2016-09-04T00:54:22.776Z,-49
2016-09-04T00:55:22.797Z,-48
2016-09-04T00:56:22.821Z,-48
2016-09-04T00:57:22.828Z,-48
2016-09-04T00:58:22.817Z,-48
2016-09-04T00:59:22.779Z,-48
2016-09-04T01:00:22.775Z,-48
2016-09-04T01:01:22.774Z,-48
2016-09-04T01:02:22.809Z,-48
2016-09-04T01:03:22.761Z,-46
2016-09-04T01:04:22.782Z,-47
2016-09-04T01:05:22.768Z,-48
2016-09-04T01:06:22.781Z,-48
2016-09-04T01:07:24.868Z,-50
2016-09-04T01:08:22.809Z,-50
2016-09-04T01:09:22.810Z,-50
2016-09-04T01:10:22.878Z,-50
2016-09-04T01:11:23.204Z,-52
2016-09-04T01:12:22.767Z,-51
2016-09-04T01:13:22.753Z,-51
2016-09-04T01:14:22.794Z,-49
2016-09-04T01:15:22.780Z,-49
2016-09-04T01:16:22.793Z,-46
2016-09-04T01:17:22.885Z,-49
2016-09-04T01:18:22.784Z,-48
2016-09-04T01:19:22.824Z,-48
2016-09-04T01:20:22.890Z,-48
2016-09-04T01:21:22.784Z,-48
2016-09-04T01:22:22.934Z,-48
2016-09-04T01:23:22.822Z,-49
2016-09-04T01:24:22.905Z,-48
2016-09-04T01:25:22.823Z,-48
2016-09-04T01:26:22.955Z,-48
2016-09-04T01:27:22.821Z,-48
2016-09-04T01:28:22.814Z,-48
2016-09-04T01:29:22.962Z,-48
2016-09-04T01:30:22.783Z,-48
2016-09-04T01:31:22.966Z,-49
2016-09-04T01:32:22.900Z,-47
2016-09-04T01:33:22.976Z,-49
2016-09-04T01:34:22.811Z,-50
2016-09-04T01:35:22.816Z,-50
2016-09-04T01:36:22.789Z,-50
2016-09-04T01:37:22.925Z,-47
2016-09-04T01:38:22.846Z,-50
2016-09-04T01:39:22.955Z,-50
2016-09-04T01:40:23.063Z,-50
2016-09-04T01:41:22.918Z,-49
2016-09-04T01:42:22.854Z,-49
2016-09-04T01:43:22.861Z,-53
2016-09-04T01:44:22.841Z,-53
2016-09-04T01:45:22.833Z,-49
2016-09-04T01:46:22.854Z,-48
2016-09-04T01:47:22.797Z,-48
2016-09-04T01:48:23.006Z,-48
2016-09-04T01:49:22.814Z,-48
2016-09-04T01:50:22.853Z,-48
2016-09-04T01:51:22.891Z,-49
2016-09-04T01:52:22.835Z,-48
2016-09-04T01:53:22.990Z,-47
2016-09-04T01:54:22.829Z,-48
2016-09-04T01:55:22.850Z,-48
2016-09-04T01:56:23.018Z,-49
2016-09-04T01:57:23.044Z,-48
2016-09-04T01:58:22.841Z,-46
2016-09-04T01:59:22.818Z,-48
2016-09-04T02:00:22.847Z,-48
2016-09-04T02:01:23.037Z,-49
2016-09-04T02:02:22.809Z,-49
2016-09-04T02:03:22.878Z,-49
2016-09-04T02:04:23.024Z,-49
2016-09-04T02:05:23.023Z,-49
2016-09-04T02:06:22.932Z,-49
2016-09-04T02:07:23.009Z,-50
2016-09-04T02:08:22.973Z,-48
2016-09-04T02:09:22.891Z,-49
2016-09-04T02:10:23.197Z,-50
2016-09-04T02:11:22.898Z,-48
2016-09-04T02:12:22.933Z,-47
2016-09-04T02:13:23.007Z,-48
2016-09-04T02:14:23.032Z,-48
2016-09-04T02:15:23.060Z,-48
2016-09-04T02:16:22.818Z,-48
2016-09-04T02:17:22.843Z,-49
2016-09-04T02:18:22.833Z,-48
2016-09-04T02:19:22.839Z,-48
2016-09-04T02:20:22.877Z,-48
2016-09-04T02:21:22.843Z,-48
2016-09-04T02:22:22.888Z,-48
2016-09-04T02:23:22.827Z,-48
2016-09-04T02:24:22.861Z,-48
2016-09-04T02:25:22.857Z,-48
2016-09-04T02:26:22.892Z,-48
2016-09-04T02:27:22.828Z,-48
2016-09-04T02:28:22.863Z,-48
2016-09-04T02:29:22.856Z,-48
2016-09-04T02:30:22.848Z,-48
2016-09-04T02:31:22.856Z,-49
2016-09-04T02:32:22.852Z,-49
2016-09-04T02:33:22.856Z,-49
2016-09-04T02:34:22.872Z,-47
2016-09-04T02:35:22.839Z,-48
2016-09-04T02:36:22.844Z,-47
2016-09-04T02:37:22.844Z,-48
2016-09-04T02:38:22.831Z,-48
2016-09-04T02:39:22.846Z,-48
2016-09-04T02:40:22.841Z,-48
2016-09-04T02:41:22.843Z,-48
2016-09-04T02:42:22.843Z,-48
2016-09-04T02:43:22.857Z,-48
2016-09-04T02:44:22.836Z,-48
2016-09-04T02:45:22.885Z,-49
2016-09-04T02:46:22.849Z,-48
2016-09-04T02:47:22.863Z,-48
2016-09-04T02:48:22.907Z,-49
2016-09-04T02:49:22.840Z,-48
2016-09-04T02:50:22.891Z,-48
2016-09-04T02:51:22.860Z,-48
2016-09-04T02:52:22.892Z,-48
2016-09-04T02:53:22.887Z,-48
2016-09-04T02:54:22.845Z,-50
2016-09-04T02:55:22.890Z,-51
2016-09-04T02:56:22.889Z,-50
2016-09-04T02:57:22.927Z,-50
2016-09-04T02:58:22.942Z,-51
2016-09-04T02:59:22.940Z,-51
2016-09-04T03:00:22.892Z,-51
2016-09-04T03:01:22.872Z,-54
2016-09-04T03:02:22.872Z,-50
2016-09-04T03:03:22.887Z,-50
2016-09-04T03:04:22.874Z,-51
2016-09-04T03:05:22.873Z,-51
2016-09-04T03:06:22.873Z,-51
2016-09-04T03:07:22.928Z,-49
2016-09-04T03:08:22.885Z,-50
2016-09-04T03:09:22.883Z,-50
2016-09-04T03:10:22.916Z,-50
2016-09-04T03:11:22.857Z,-50
2016-09-04T03:12:22.906Z,-50
2016-09-04T03:13:22.905Z,-52
2016-09-04T03:14:22.959Z,-50
2016-09-04T03:15:22.897Z,-50
2016-09-04T03:16:22.889Z,-50
2016-09-04T03:17:22.901Z,-49
2016-09-04T03:18:22.911Z,-50
2016-09-04T03:19:22.953Z,-51
2016-09-04T03:20:22.951Z,-50
2016-09-04T03:21:22.939Z,-50
2016-09-04T03:22:22.904Z,-50
2016-09-04T03:23:22.907Z,-50
2016-09-04T03:24:22.911Z,-50
2016-09-04T03:25:22.913Z,-50
2016-09-04T03:26:22.919Z,-50
2016-09-04T03:27:22.906Z,-50
2016-09-04T03:28:22.891Z,-50
2016-09-04T03:29:22.895Z,-50
2016-09-04T03:30:22.946Z,-50
2016-09-04T03:31:22.918Z,-52
2016-09-04T03:32:22.896Z,-51
2016-09-04T03:33:22.911Z,-51
2016-09-04T03:34:22.922Z,-51
2016-09-04T03:35:22.908Z,-52
2016-09-04T03:36:22.931Z,-52
2016-09-04T03:37:22.919Z,-49
2016-09-04T03:38:22.912Z,-48
2016-09-04T03:39:22.979Z,-49
2016-09-04T03:40:22.920Z,-49
2016-09-04T03:41:22.919Z,-49
2016-09-04T03:42:22.926Z,-49
2016-09-04T03:43:22.892Z,-50
2016-09-04T03:44:22.924Z,-49
2016-09-04T03:45:22.908Z,-49
2016-09-04T03:46:22.916Z,-49
2016-09-04T03:47:22.900Z,-49
2016-09-04T03:48:22.945Z,-49
2016-09-04T03:49:22.913Z,-49
2016-09-04T03:50:22.923Z,-50
2016-09-04T03:51:22.954Z,-49
2016-09-04T03:52:22.919Z,-46
2016-09-04T03:53:22.921Z,-46
2016-09-04T03:54:22.913Z,-46
2016-09-04T03:55:22.938Z,-45
2016-09-04T03:56:22.938Z,-48
2016-09-04T03:57:22.944Z,-47
2016-09-04T03:58:22.984Z,-48
2016-09-04T03:59:22.958Z,-46
2016-09-04T04:00:22.955Z,-46
2016-09-04T04:01:22.925Z,-47
2016-09-04T04:02:22.929Z,-45
2016-09-04T04:03:22.953Z,-46
2016-09-04T04:04:22.959Z,-45
2016-09-04T04:05:22.939Z,-49
2016-09-04T04:06:22.959Z,-49
2016-09-04T04:07:22.985Z,-49
2016-09-04T04:08:22.973Z,-50
2016-09-04T04:09:22.968Z,-49
2016-09-04T04:10:22.956Z,-49
2016-09-04T04:11:22.965Z,-49
2016-09-04T04:12:22.950Z,-49
2016-09-04T04:13:22.943Z,-48
2016-09-04T04:14:23.944Z,-48
2016-09-04T04:15:22.940Z,-49
2016-09-04T04:16:22.974Z,-48
2016-09-04T04:17:22.971Z,-48
2016-09-04T04:18:22.976Z,-48
2016-09-04T04:19:22.955Z,-49
2016-09-04T04:20:22.970Z,-49
2016-09-04T04:21:22.996Z,-50
2016-09-04T04:22:22.959Z,-50
2016-09-04T04:23:22.977Z,-50
2016-09-04T04:24:22.969Z,-50
2016-09-04T04:25:22.986Z,-48
2016-09-04T04:26:22.944Z,-48
2016-09-04T04:27:22.928Z,-48
2016-09-04T04:28:22.956Z,-49
2016-09-04T04:29:22.970Z,-48
2016-09-04T04:30:22.955Z,-47
2016-09-04T04:31:22.989Z,-49
2016-09-04T04:32:22.986Z,-49
2016-09-04T04:33:23.001Z,-49
2016-09-04T04:34:23.029Z,-49
2016-09-04T04:35:22.976Z,-49
2016-09-04T04:36:23.029Z,-49
2016-09-04T04:37:22.997Z,-47
2016-09-04T04:38:22.996Z,-49
2016-09-04T04:39:22.975Z,-47
2016-09-04T04:40:22.971Z,-51
2016-09-04T04:41:22.974Z,-50
2016-09-04T04:42:22.972Z,-51
2016-09-04T04:43:22.972Z,-50
2016-09-04T04:44:22.952Z,-47
2016-09-04T04:45:22.954Z,-48
2016-09-04T04:46:22.985Z,-49
2016-09-04T04:47:23.003Z,-49
2016-09-04T04:48:23.063Z,-50
2016-09-04T04:49:22.972Z,-49
2016-09-04T04:50:22.969Z,-49
2016-09-04T04:51:24.000Z,-48
2016-09-04T04:52:22.982Z,-48
2016-09-04T04:53:22.990Z,-48
2016-09-04T04:54:22.999Z,-49
2016-09-04T04:55:23.000Z,-48
2016-09-04T04:56:23.009Z,-49
2016-09-04T04:57:22.978Z,-49
2016-09-04T04:58:23.000Z,-49
2016-09-04T04:59:23.003Z,-49
2016-09-04T05:00:23.021Z,-48
2016-09-04T05:01:22.975Z,-49
2016-09-04T05:02:22.975Z,-48
2016-09-04T05:03:22.985Z,-47
2016-09-04T05:04:22.989Z,-48
2016-09-04T05:05:23.000Z,-48
2016-09-04T05:06:22.987Z,-47
2016-09-04T05:07:23.015Z,-48
2016-09-04T05:08:23.016Z,-48
2016-09-04T05:09:23.008Z,-49
2016-09-04T05:10:22.984Z,-49
2016-09-04T05:11:22.987Z,-50
2016-09-04T05:12:23.019Z,-49
2016-09-04T05:13:23.078Z,-49
2016-09-04T05:14:23.050Z,-50
2016-09-04T05:15:23.019Z,-49
2016-09-04T05:16:23.003Z,-50
2016-09-04T05:17:22.988Z,-49
2016-09-04T05:18:23.078Z,-50
2016-09-04T05:19:22.983Z,-50
2016-09-04T05:20:23.031Z,-50
2016-09-04T05:21:22.976Z,-49
2016-09-04T05:22:23.012Z,-50
2016-09-04T05:23:23.033Z,-50
2016-09-04T05:24:23.016Z,-50
2016-09-04T05:25:23.077Z,-50
2016-09-04T05:26:23.018Z,-49
2016-09-04T05:27:23.079Z,-49
2016-09-04T05:28:23.004Z,-50
2016-09-04T05:29:23.019Z,-50
2016-09-04T05:30:22.995Z,-50
2016-09-04T05:31:23.022Z,-50
2016-09-04T05:32:23.000Z,-49
2016-09-04T05:33:23.065Z,-51
2016-09-04T05:34:23.072Z,-50
2016-09-04T05:35:23.037Z,-49
2016-09-04T05:36:23.021Z,-48
2016-09-04T05:37:23.037Z,-48
2016-09-04T05:38:23.007Z,-46
2016-09-04T05:39:23.020Z,-48
2016-09-04T05:40:23.035Z,-48
2016-09-04T05:41:23.001Z,-48
2016-09-04T05:42:23.016Z,-47
2016-09-04T05:43:23.005Z,-47
2016-09-04T05:44:23.034Z,-47
2016-09-04T05:45:23.035Z,-49
2016-09-04T05:46:23.047Z,-48
2016-09-04T05:47:23.049Z,-48
2016-09-04T05:48:23.080Z,-48
2016-09-04T05:49:23.040Z,-49
2016-09-04T05:50:23.083Z,-49
2016-09-04T05:51:23.047Z,-49
2016-09-04T05:52:23.040Z,-49
2016-09-04T05:53:23.061Z,-49
2016-09-04T05:54:23.069Z,-48
2016-09-04T05:55:23.035Z,-48
2016-09-04T05:56:23.082Z,-48
2016-09-04T05:57:23.052Z,-48
2016-09-04T05:58:23.081Z,-48
2016-09-04T05:59:23.022Z,-49
2016-09-04T06:00:23.066Z,-49
2016-09-04T06:01:23.052Z,-48
2016-09-04T06:02:23.048Z,-46
2016-09-04T06:03:23.096Z,-48
2016-09-04T06:04:23.057Z,-48
2016-09-04T06:05:23.078Z,-47
2016-09-04T06:06:23.042Z,-48
2016-09-04T06:07:23.078Z,-48
2016-09-04T06:08:23.084Z,-48
2016-09-04T06:09:23.103Z,-48
2016-09-04T06:10:23.053Z,-49
2016-09-04T06:11:23.055Z,-48
2016-09-04T06:12:23.044Z,-48
2016-09-04T06:13:23.071Z,-48
2016-09-04T06:14:23.052Z,-48
2016-09-04T06:15:23.061Z,-48
2016-09-04T06:16:23.069Z,-48
2016-09-04T06:17:23.111Z,-48
2016-09-04T06:18:23.081Z,-48
2016-09-04T06:19:23.029Z,-48
2016-09-04T06:20:23.067Z,-48
2016-09-04T06:21:23.083Z,-48
2016-09-04T06:22:23.052Z,-48
2016-09-04T06:23:23.079Z,-48
2016-09-04T06:24:23.098Z,-48
2016-09-04T06:25:23.083Z,-48
2016-09-04T06:26:23.171Z,-48
2016-09-04T06:27:23.072Z,-48
2016-09-04T06:28:23.131Z,-48
2016-09-04T06:29:23.098Z,-48
2016-09-04T06:30:23.049Z,-48
2016-09-04T06:31:23.127Z,-48
2016-09-04T06:32:23.082Z,-48
2016-09-04T06:33:23.094Z,-48
2016-09-04T06:34:23.098Z,-48
2016-09-04T06:35:23.073Z,-48
2016-09-04T06:36:23.077Z,-48
2016-09-04T06:37:23.102Z,-48
2016-09-04T06:38:23.109Z,-48
2016-09-04T06:39:23.087Z,-48
2016-09-04T06:40:23.076Z,-48
2016-09-04T06:41:23.111Z,-48
2016-09-04T06:42:23.132Z,-47
2016-09-04T06:43:23.112Z,-48
2016-09-04T06:44:23.059Z,-47
2016-09-04T06:45:23.066Z,-48
2016-09-04T06:46:23.067Z,-48
2016-09-04T06:47:23.134Z,-48
2016-09-04T06:48:23.112Z,-49
2016-09-04T06:49:23.085Z,-46
2016-09-04T06:50:23.116Z,-48
2016-09-04T06:51:23.099Z,-49
2016-09-04T06:52:23.130Z,-51
2016-09-04T06:53:23.103Z,-50
2016-09-04T06:54:23.097Z,-49
2016-09-04T06:55:23.174Z,-50
2016-09-04T06:56:23.113Z,-49
2016-09-04T06:57:23.098Z,-50
2016-09-04T06:58:23.100Z,-50
2016-09-04T06:59:23.096Z,-50
2016-09-04T07:00:23.149Z,-48
2016-09-04T07:01:23.093Z,-49
2016-09-04T07:02:23.120Z,-48
2016-09-04T07:03:23.114Z,-48
2016-09-04T07:04:23.160Z,-48
2016-09-04T07:05:23.151Z,-48
2016-09-04T07:06:23.144Z,-49
2016-09-04T07:07:23.136Z,-49
2016-09-04T07:08:23.144Z,-48
2016-09-04T07:09:23.147Z,-49
2016-09-04T07:10:23.134Z,-48
2016-09-04T07:11:23.117Z,-49
2016-09-04T07:12:23.098Z,-48
2016-09-04T07:13:23.145Z,-49
2016-09-04T07:14:23.203Z,-49
2016-09-04T07:15:23.820Z,-50
2016-09-04T07:16:23.160Z,-51
2016-09-04T07:17:23.179Z,-51
2016-09-04T07:18:23.144Z,-49
2016-09-04T07:19:23.143Z,-47
2016-09-04T07:20:23.180Z,-50
2016-09-04T07:21:23.131Z,-51
2016-09-04T07:22:23.128Z,-52
2016-09-04T07:23:23.147Z,-52
2016-09-04T07:24:23.145Z,-52
2016-09-04T07:25:23.172Z,-50
2016-09-04T07:26:23.131Z,-50
2016-09-04T07:27:23.138Z,-50
2016-09-04T07:28:23.143Z,-49
2016-09-04T07:29:23.107Z,-49
2016-09-04T07:30:23.161Z,-49
2016-09-04T07:31:23.202Z,-51
2016-09-04T07:32:23.157Z,-50
2016-09-04T07:33:23.180Z,-50
2016-09-04T07:34:23.175Z,-51
2016-09-04T07:35:23.136Z,-49
2016-09-04T07:36:23.178Z,-48
2016-09-04T07:37:23.194Z,-48
2016-09-04T07:38:23.174Z,-49
2016-09-04T07:39:23.177Z,-50
2016-09-04T07:40:23.170Z,-52
2016-09-04T07:41:23.203Z,-47
2016-09-04T07:42:23.163Z,-50
2016-09-04T07:43:23.162Z,-50
2016-09-04T07:44:23.235Z,-50
2016-09-04T07:45:23.204Z,-52
2016-09-04T07:46:23.168Z,-50
2016-09-04T07:47:23.177Z,-50
2016-09-04T07:48:23.210Z,-49
2016-09-04T07:49:23.250Z,-50
2016-09-04T07:50:23.162Z,-50
2016-09-04T07:51:23.187Z,-50
2016-09-04T07:52:23.157Z,-48
2016-09-04T07:53:23.162Z,-50
2016-09-04T07:54:23.196Z,-50
2016-09-04T07:55:23.238Z,-50
2016-09-04T07:56:23.177Z,-50
2016-09-04T07:57:23.156Z,-50
2016-09-04T07:58:23.266Z,-50
2016-09-04T07:59:23.227Z,-49
2016-09-04T08:00:23.249Z,-50
2016-09-04T08:01:23.224Z,-49
2016-09-04T08:02:23.188Z,-50
2016-09-04T08:03:23.160Z,-50
2016-09-04T08:04:23.263Z,-49
2016-09-04T08:05:23.231Z,-49
2016-09-04T08:06:23.186Z,-49
2016-09-04T08:07:23.197Z,-49
2016-09-04T08:08:23.207Z,-49
2016-09-04T08:09:23.214Z,-48
2016-09-04T08:10:23.204Z,-49
2016-09-04T08:11:23.172Z,-49
2016-09-04T08:12:23.177Z,-49
2016-09-04T08:13:23.157Z,-50
2016-09-04T08:14:23.215Z,-50
2016-09-04T08:15:23.179Z,-50
2016-09-04T08:16:23.159Z,-49
2016-09-04T08:17:23.190Z,-50
2016-09-04T08:18:23.213Z,-50
2016-09-04T08:19:23.194Z,-50
2016-09-04T08:20:23.209Z,-51
2016-09-04T08:21:23.198Z,-49
2016-09-04T08:22:23.174Z,-48
2016-09-04T08:23:23.211Z,-50
2016-09-04T08:24:23.206Z,-50
2016-09-04T08:25:23.213Z,-50
2016-09-04T08:26:23.224Z,-51
2016-09-04T08:27:23.193Z,-50
2016-09-04T08:28:23.257Z,-50
2016-09-04T08:29:23.254Z,-50
2016-09-04T08:30:23.213Z,-50
2016-09-04T08:31:23.206Z,-49
2016-09-04T08:32:23.196Z,-47
2016-09-04T08:33:23.226Z,-50
2016-09-04T08:34:23.211Z,-50
2016-09-04T08:35:23.203Z,-50
2016-09-04T08:36:23.182Z,-50
2016-09-04T08:37:23.222Z,-51
2016-09-04T08:38:23.199Z,-50
2016-09-04T08:39:23.230Z,-49
2016-09-04T08:40:23.243Z,-49
2016-09-04T08:41:23.201Z,-50
2016-09-04T08:42:23.254Z,-50
2016-09-04T08:43:23.229Z,-49
2016-09-04T08:44:23.256Z,-49
2016-09-04T08:45:23.285Z,-47
2016-09-04T08:46:23.297Z,-50
2016-09-04T08:47:23.285Z,-48
2016-09-04T08:48:23.242Z,-48
2016-09-04T08:49:23.274Z,-49
2016-09-04T08:50:23.224Z,-48
2016-09-04T08:51:23.226Z,-48
2016-09-04T08:52:23.263Z,-48
2016-09-04T08:53:23.287Z,-49
2016-09-04T08:54:23.304Z,-48
2016-09-04T08:55:23.302Z,-48
2016-09-04T08:56:23.251Z,-49
2016-09-04T08:57:23.242Z,-49
2016-09-04T08:58:23.257Z,-50
2016-09-04T08:59:23.213Z,-50
2016-09-04T09:00:23.244Z,-50
2016-09-04T09:01:23.256Z,-50
2016-09-04T09:02:23.264Z,-50
2016-09-04T09:03:23.293Z,-51
2016-09-04T09:04:23.270Z,-50
2016-09-04T09:05:23.241Z,-50
2016-09-04T09:06:23.226Z,-50
2016-09-04T09:07:23.230Z,-50
2016-09-04T09:08:23.303Z,-50
2016-09-04T09:09:23.253Z,-52
2016-09-04T09:10:23.288Z,-50
2016-09-04T09:11:23.269Z,-49
2016-09-04T09:12:23.272Z,-49
2016-09-04T09:13:23.258Z,-50
2016-09-04T09:14:23.359Z,-51
2016-09-04T09:15:23.298Z,-50
2016-09-04T09:16:23.238Z,-50
2016-09-04T09:17:23.251Z,-50
2016-09-04T09:18:23.762Z,-52
2016-09-04T09:19:24.079Z,-54
2016-09-04T09:20:23.384Z,-53
2016-09-04T09:21:25.677Z,-53
2016-09-04T09:22:23.259Z,-53
2016-09-04T09:23:23.346Z,-51
2016-09-04T09:24:23.318Z,-50
2016-09-04T09:25:23.255Z,-49
2016-09-04T09:26:23.258Z,-50
2016-09-04T09:27:23.293Z,-49
2016-09-04T09:28:23.244Z,-49
2016-09-04T09:29:23.257Z,-47
2016-09-04T09:30:23.273Z,-49
2016-09-04T09:31:23.303Z,-48
2016-09-04T09:32:23.336Z,-48
2016-09-04T09:33:23.275Z,-48
2016-09-04T09:34:23.262Z,-49
2016-09-04T09:35:23.271Z,-49
2016-09-04T09:36:23.288Z,-49
2016-09-04T09:37:23.317Z,-49
2016-09-04T09:38:23.302Z,-52
2016-09-04T09:39:23.349Z,-54
2016-09-04T09:40:23.341Z,-52
2016-09-04T09:41:23.322Z,-48
2016-09-04T09:42:23.302Z,-53
2016-09-04T09:43:23.291Z,-53
2016-09-04T09:44:23.340Z,-55
2016-09-04T09:45:23.339Z,-54
2016-09-04T09:46:23.328Z,-54
2016-09-04T09:47:23.284Z,-54
2016-09-04T09:48:23.383Z,-53
2016-09-04T09:49:23.335Z,-53
2016-09-04T09:50:23.339Z,-53
2016-09-04T09:51:23.547Z,-53
2016-09-04T09:52:23.275Z,-52
2016-09-04T09:53:23.378Z,-54
2016-09-04T09:54:23.306Z,-55
2016-09-04T09:55:23.365Z,-54
2016-09-04T09:56:23.273Z,-53
2016-09-04T09:57:23.586Z,-52
2016-09-04T09:58:23.314Z,-52
2016-09-04T09:59:24.467Z,-53
2016-09-04T10:00:23.319Z,-53
2016-09-04T10:01:23.364Z,-54
2016-09-04T10:02:23.305Z,-53
2016-09-04T10:03:23.311Z,-54
2016-09-04T10:04:23.318Z,-53
2016-09-04T10:05:23.463Z,-53
2016-09-04T10:06:23.306Z,-52
2016-09-04T10:07:23.315Z,-52
2016-09-04T10:08:23.331Z,-52
2016-09-04T10:09:24.499Z,-52
2016-09-04T10:10:23.401Z,-53
2016-09-04T10:11:24.686Z,-49
2016-09-04T10:12:23.340Z,-50
2016-09-04T10:13:23.334Z,-48
2016-09-04T10:14:23.347Z,-50
2016-09-04T10:15:23.343Z,-51
2016-09-04T10:16:23.376Z,-51
2016-09-04T10:17:23.334Z,-50
2016-09-04T10:18:23.296Z,-49
2016-09-04T10:19:23.346Z,-49
2016-09-04T10:20:47.325Z,-49
2016-09-04T10:22:23.961Z,-49
2016-09-04T10:22:47.764Z,-47
2016-09-04T10:23:48.842Z,-50
2016-09-04T10:24:44.635Z,-50
2016-09-04T10:27:04.273Z,-50
2016-09-04T10:28:47.580Z,-49
2016-09-04T10:30:47.331Z,-50
2016-09-04T10:32:27.972Z,-48
2016-09-04T10:34:06.797Z,-48
2016-09-04T10:35:45.142Z,-51
2016-09-04T10:37:06.608Z,-52
2016-09-04T10:38:06.313Z,-52
2016-09-04T10:39:13.971Z,-51
2016-09-04T10:40:14.402Z,-52
2016-09-04T10:40:24.574Z,-53
2016-09-04T10:42:19.817Z,-52
2016-09-04T10:43:28.165Z,-52
2016-09-04T10:44:35.359Z,-52
2016-09-04T10:45:24.989Z,-54
2016-09-04T10:45:45.684Z,-54
2016-09-04T10:46:45.470Z,-54
2016-09-04T10:47:45.479Z,-54
2016-09-04T10:48:45.461Z,-54
2016-09-04T10:49:45.514Z,-54
2016-09-04T10:50:45.453Z,-56
2016-09-04T10:51:45.520Z,-54
2016-09-04T10:52:45.557Z,-54
2016-09-04T10:53:45.547Z,-52
2016-09-04T10:54:45.582Z,-53
2016-09-04T10:55:45.541Z,-52
2016-09-04T10:56:45.731Z,-52
2016-09-04T10:57:45.515Z,-53
2016-09-04T10:58:45.503Z,-53
2016-09-04T10:59:45.502Z,-49
2016-09-04T11:00:45.495Z,-51
2016-09-04T11:01:45.614Z,-54
2016-09-04T11:02:45.930Z,-51
2016-09-04T11:03:46.653Z,-52
2016-09-04T11:04:53.161Z,-55
2016-09-04T11:05:57.351Z,-51
2016-09-04T11:08:09.395Z,-56
2016-09-04T11:09:19.224Z,-48
2016-09-04T11:09:39.248Z,-49
2016-09-04T11:11:08.742Z,-50
2016-09-04T11:11:29.533Z,-50
2016-09-04T11:12:29.533Z,-50
2016-09-04T11:13:29.353Z,-52
2016-09-04T11:14:29.386Z,-53
2016-09-04T11:15:29.386Z,-53
2016-09-04T11:16:29.359Z,-52
2016-09-04T11:17:29.369Z,-52
2016-09-04T11:18:35.175Z,-51
2016-09-04T11:19:49.300Z,-52
2016-09-04T11:20:31.854Z,-50
2016-09-04T11:21:29.670Z,-51
2016-09-04T11:22:29.402Z,-53
2016-09-04T11:23:29.857Z,-53
2016-09-04T11:24:30.163Z,-52
2016-09-04T11:25:29.377Z,-53
2016-09-04T11:26:29.570Z,-54
2016-09-04T11:27:29.389Z,-52
2016-09-04T11:28:29.431Z,-51
2016-09-04T11:29:29.517Z,-52
2016-09-04T11:30:29.492Z,-51
2016-09-04T11:31:29.843Z,-53
2016-09-04T11:32:29.488Z,-52
2016-09-04T11:33:29.755Z,-50
2016-09-04T11:34:29.478Z,-51
2016-09-04T11:35:29.375Z,-54
2016-09-04T11:36:29.349Z,-52
2016-09-04T11:37:29.437Z,-48
2016-09-04T11:38:29.454Z,-48
2016-09-04T11:39:29.375Z,-48
2016-09-04T11:40:29.407Z,-47
2016-09-04T11:41:29.799Z,-48
2016-09-04T11:42:29.365Z,-48
2016-09-04T11:43:29.384Z,-47
2016-09-04T11:44:29.366Z,-48
2016-09-04T11:45:29.371Z,-48
2016-09-04T11:46:29.398Z,-50
2016-09-04T11:47:29.399Z,-51
2016-09-04T11:48:29.358Z,-51
2016-09-04T11:49:29.425Z,-49
2016-09-04T11:50:29.438Z,-49
2016-09-04T11:51:29.445Z,-49
2016-09-04T11:52:29.432Z,-48
2016-09-04T11:53:29.466Z,-51
2016-09-04T11:54:29.443Z,-49
2016-09-04T11:55:29.562Z,-49
2016-09-04T11:56:29.654Z,-50
2016-09-04T11:57:30.934Z,-54
2016-09-04T11:58:29.835Z,-56
2016-09-04T11:59:29.849Z,-56
2016-09-04T12:00:29.885Z,-54
2016-09-04T12:01:29.588Z,-50
2016-09-04T12:03:54.327Z,-52
2016-09-04T12:05:13.697Z,-52
2016-09-04T12:06:37.025Z,-50
2016-09-04T12:07:59.138Z,-49
2016-09-04T12:09:22.784Z,-48
2016-09-04T12:09:35.949Z,-52
2016-09-04T12:10:32.962Z,-50
2016-09-04T12:11:32.949Z,-52
2016-09-04T12:12:33.000Z,-52
2016-09-04T12:13:39.470Z,-54
2016-09-04T12:14:32.974Z,-50
2016-09-04T12:15:32.890Z,-51
2016-09-04T12:16:33.106Z,-51
2016-09-04T12:17:45.867Z,-50
2016-09-04T12:19:12.765Z,-52
2016-09-04T12:19:35.371Z,-52
2016-09-04T12:21:30.455Z,-48
2016-09-04T12:22:30.712Z,-53
2016-09-04T12:23:35.512Z,-55
2016-09-04T12:25:21.035Z,-53
2016-09-04T12:28:04.463Z,-54
2016-09-04T12:28:27.031Z,-52
2016-09-04T12:30:05.367Z,-54
2016-09-04T12:31:26.277Z,-53
2016-09-04T12:32:26.774Z,-53
2016-09-04T12:33:45.349Z,-51
2016-09-04T12:35:14.266Z,-50
2016-09-04T12:36:28.904Z,-50
2016-09-04T12:37:11.237Z,-51
2016-09-04T12:37:46.678Z,-53
2016-09-04T12:38:42.917Z,-53
2016-09-04T12:39:40.861Z,-51
2016-09-04T12:40:52.687Z,-52
2016-09-04T12:41:40.375Z,-50
2016-09-04T12:42:39.257Z,-50
2016-09-04T12:43:39.664Z,-49
2016-09-04T12:44:39.681Z,-50
2016-09-04T12:45:39.641Z,-52
2016-09-04T12:46:39.281Z,-51
2016-09-04T12:47:39.630Z,-55
2016-09-04T12:48:39.122Z,-52
2016-09-04T12:49:39.176Z,-52
2016-09-04T12:50:39.149Z,-50
2016-09-04T12:51:39.110Z,-52
2016-09-04T12:52:39.224Z,-54
2016-09-04T12:53:39.110Z,-56
2016-09-04T12:54:39.543Z,-56
2016-09-04T12:55:39.422Z,-54
2016-09-04T12:56:39.230Z,-52
2016-09-04T12:57:39.244Z,-52
2016-09-04T12:58:39.165Z,-54
2016-09-04T12:59:39.191Z,-52
2016-09-04T13:00:39.183Z,-53
2016-09-04T13:01:39.126Z,-52
2016-09-04T13:02:39.118Z,-51
2016-09-04T13:03:39.312Z,-47
2016-09-04T13:04:39.214Z,-50
2016-09-04T13:05:39.177Z,-52
2016-09-04T13:06:39.237Z,-52
2016-09-04T13:07:39.207Z,-50
2016-09-04T13:08:39.149Z,-50
2016-09-04T13:09:39.135Z,-50
2016-09-04T13:10:39.203Z,-50
2016-09-04T13:11:39.237Z,-50
2016-09-04T13:12:39.438Z,-52
2016-09-04T13:13:39.524Z,-49
2016-09-04T13:14:39.207Z,-50
2016-09-04T13:15:39.536Z,-50
2016-09-04T13:16:39.716Z,-48
2016-09-04T13:17:39.364Z,-51
2016-09-04T13:18:39.833Z,-51
2016-09-04T13:19:39.258Z,-52
2016-09-04T13:20:40.306Z,-53
2016-09-04T13:21:39.230Z,-49
2016-09-04T13:22:39.404Z,-50
2016-09-04T13:23:39.517Z,-50
2016-09-04T13:24:39.158Z,-50
2016-09-04T13:25:39.650Z,-51
2016-09-04T13:26:39.633Z,-51
2016-09-04T13:27:39.864Z,-50
2016-09-04T13:28:39.528Z,-51
2016-09-04T13:29:39.583Z,-49
2016-09-04T13:30:39.276Z,-51
2016-09-04T13:31:39.499Z,-50
2016-09-04T13:32:39.514Z,-50
2016-09-04T13:33:39.301Z,-51
2016-09-04T13:34:39.353Z,-51
2016-09-04T13:35:39.340Z,-53
2016-09-04T13:36:39.386Z,-52
2016-09-04T13:37:39.313Z,-53
2016-09-04T13:38:39.346Z,-52
2016-09-04T13:39:39.293Z,-52
2016-09-04T13:40:39.199Z,-50
2016-09-04T13:41:39.238Z,-49
2016-09-04T13:42:39.364Z,-48
2016-09-04T13:43:39.187Z,-50
2016-09-04T13:44:39.171Z,-50
2016-09-04T13:45:39.336Z,-49
2016-09-04T13:46:39.411Z,-50
2016-09-04T13:47:39.243Z,-50
2016-09-04T13:48:39.174Z,-49
2016-09-04T13:49:39.321Z,-50
2016-09-04T13:50:39.246Z,-49
2016-09-04T13:51:39.164Z,-49
2016-09-04T13:52:39.203Z,-50
2016-09-04T13:53:39.273Z,-50
2016-09-04T13:54:39.299Z,-49
2016-09-04T13:55:39.177Z,-50
2016-09-04T13:56:39.306Z,-52
2016-09-04T13:57:39.192Z,-50
2016-09-04T13:58:39.177Z,-53